Latest Coastal Weather Observations for Middle Percy Island

IDQ60701

Issued at 8:31 am EST Friday 27 May 2016 (issued every 10 minutes, with the page automatically refreshed every 10 minutes)

About coastal observations | Map of coastal stations | Coastal observations for QLD | Marine services | Other Formats
Station Details ID: 200001 Name: MIDDLE PERCY ISLAND Lat: -21.66 Lon: 150.27 Height: 208.7 m
Data from the previous 72 hours. | See also: Recent months at Middle Percy Island
Date/Time
EST
Temp

°C
Wind Pressure Rain
since 9am
mm
Weather Cloud Vis
km
Sea
Height
m
Swell
Dir
 
Speed
knots
Gust
knots
hPa Trend Height
m
Period
s
Dir
27/08:30am 24.6 NNW 16 21 1013.5 - 0.0 - - - - - - -
27/08:00am 24.1 NNW 16 23 1013.3 - 0.0 - - - - - - -
27/07:30am 23.7 NNW 16 22 1012.9 - 0.0 - - - - - - -
27/07:00am 23.3 NNW 15 21 1012.8 - 0.0 - - - - - - -
27/06:30am 22.8 NNW 16 22 1012.5 - 0.0 - - - - - - -
27/06:00am 23.1 NNW 16 23 1012.2 - 0.0 - - - - - - -
27/05:30am 22.8 NNW 16 22 1011.9 - 0.0 - - - - - - -
27/05:00am 22.8 NNW 17 25 1011.6 - 0.0 - - - - - - -
27/04:30am 22.9 NNW 17 24 1011.6 - 0.0 - - - - - - -
27/04:00am 22.9 NNW 18 25 1011.6 - 0.0 - - - - - - -
27/03:30am 22.8 NNW 17 25 1011.7 - 0.0 - - - - - - -
27/03:00am 22.8 NNW 17 23 1011.7 - 0.0 - - - - - - -
27/02:30am 22.9 NNW 17 23 1011.9 - 0.0 - - - - - - -
27/02:00am 22.8 NNW 15 21 1012.3 - 0.0 - - - - - - -
27/01:30am 22.9 NNW 15 20 1012.7 - 0.0 - - - - - - -
27/01:00am 22.9 NNW 15 21 1012.9 - 0.0 - - - - - - -
27/12:30am 22.8 N 15 21 1013.0 - 0.0 - - - - - - -
27/12:00am 22.8 N 16 21 1012.8 - 0.0 - - - - - - -
 
Date/Time
EST
Temp

°C
Wind Pressure Rain
since 9am
mm
Weather Cloud Vis
km
Sea
Height
m
Swell
Dir
 
Speed
knots
Gust
knots
hPa Trend Height
m
Period
s
Dir
26/11:30pm 22.8 N 15 20 1013.3 - 0.0 - - - - - - -
26/11:00pm 22.7 N 15 21 1013.4 - 0.0 - - - - - - -
26/10:30pm 22.7 N 13 21 1013.9 - 0.0 - - - - - - -
26/10:00pm 22.6 N 12 18 1014.2 - 0.0 - - - - - - -
26/09:30pm 22.6 N 12 17 1014.3 - 0.0 - - - - - - -
26/09:00pm 22.7 N 12 17 1014.5 - 0.0 - - - - - - -
26/08:30pm 22.6 N 11 16 1014.7 - 0.0 - - - - - - -
26/08:00pm 22.6 N 11 16 1014.8 - 0.0 - - - - - - -
26/07:30pm 22.5 N 10 13 1014.7 - 0.0 - - - - - - -
26/07:00pm 22.5 N 8 12 1014.4 - 0.0 - - - - - - -
26/06:30pm 22.5 N 7 9 1014.2 - 0.0 - - - - - - -
26/06:00pm 22.5 N 8 13 1013.6 - 0.0 - - - - - - -
26/05:30pm 22.6 N 10 14 1013.1 - 0.0 - - - - - - -
26/05:00pm 23.1 N 9 15 1013.0 - 0.0 - - - - - - -
26/04:30pm 23.5 N 9 16 1012.8 - 0.0 - - - - - - -
26/04:00pm 24.1 N 10 15 1012.7 - 0.0 - - - - - - -
26/03:30pm 24.5 N 10 14 1013.2 - 0.0 - - - - - - -
26/03:00pm 24.9 N 8 13 1013.8 - 0.0 - - - - - - -
26/02:30pm 24.9 N 9 13 1014.0 - 0.0 - - - - - - -
26/02:00pm 25.1 N 10 13 1014.4 - 0.0 - - - - - - -
26/01:30pm 24.9 N 9 12 1014.8 - 0.0 - - - - - - -
26/01:00pm 25.2 N 8 12 1015.1 - 0.0 - - - - - - -
26/12:30pm 24.4 NNE 8 10 1015.3 - 0.0 - - - - - - -
26/12:00pm 25.5 N 8 12 1016.0 - 0.0 - - - - - - -
26/11:30am 25.2 N 7 10 1016.4 - 0.0 - - - - - - -
26/11:00am 24.7 N 8 11 1016.7 - 0.0 - - - - - - -
26/10:30am 24.9 N 6 10 1016.9 - 0.0 - - - - - - -
26/10:00am 24.7 NNE 7 11 1017.0 - 0.0 - - - - - - -
26/09:30am 24.6 N 6 9 1017.4 - 0.0 - - - - - - -
26/09:00am 24.7 N 5 8 1017.6 - 0.0 - - - - - - -
26/08:30am 23.6 N 6 8 1017.5 - 0.0 - - - - - - -
26/08:00am 22.8 N 4 6 1017.5 - 0.0 - - - - - - -
26/07:30am 22.2 N 6 7 1017.0 - 0.0 - - - - - - -
26/07:00am 21.2 NNE 5 6 1016.9 - 0.0 - - - - - - -
26/06:30am 20.8 NNE 5 6 1016.7 - 0.0 - - - - - - -
26/06:00am 20.6 N 6 7 1016.3 - 0.0 - - - - - - -
26/05:30am 20.8 N 5 6 1016.3 - 0.0 - - - - - - -
26/05:00am 20.8 N 5 8 1016.1 - 0.0 - - - - - - -
26/04:30am 20.8 N 7 8 1015.9 - 0.0 - - - - - - -
26/04:00am 20.6 N 6 9 1015.9 - 0.0 - - - - - - -
26/03:30am 20.9 N 8 9 1016.1 - 0.0 - - - - - - -
26/03:00am 20.6 N 7 10 1016.2 - 0.0 - - - - - - -
26/02:30am 20.9 N 6 7 1016.5 - 0.0 - - - - - - -
26/02:00am 21.1 N 8 11 1016.4 - 0.0 - - - - - - -
26/01:30am 21.1 N 4 7 1016.7 - 0.0 - - - - - - -
26/01:00am 21.5 N 7 11 1016.8 - 0.0 - - - - - - -
26/12:30am 21.6 N 8 11 1016.9 - 0.0 - - - - - - -
26/12:00am 21.7 N 9 12 1017.0 - 0.0 - - - - - - -
 
Date/Time
EST
Temp

°C
Wind Pressure Rain
since 9am
mm
Weather Cloud Vis
km
Sea
Height
m
Swell
Dir
 
Speed
knots
Gust
knots
hPa Trend Height
m
Period
s
Dir
25/11:30pm 21.7 NNE 9 12 1017.0 - 0.0 - - - - - - -
25/11:00pm 21.6 NNE 8 11 1017.3 - 0.0 - - - - - - -
25/10:30pm 21.7 NNE 8 11 1017.5 - 0.0 - - - - - - -
25/10:00pm 21.6 NNE 7 9 1017.6 - 0.0 - - - - - - -
25/09:30pm 21.6 NNE 5 8 1017.7 - 0.0 - - - - - - -
25/09:00pm 21.6 NE 6 8 1017.7 - 0.0 - - - - - - -
25/08:30pm 21.5 NE 5 7 1017.5 - 0.0 - - - - - - -
25/08:00pm 21.7 ENE 4 6 1017.2 - 0.0 - - - - - - -
25/07:30pm 21.8 NE 4 6 1016.9 - 0.0 - - - - - - -
25/07:00pm 21.8 NE 6 8 1016.6 - 0.0 - - - - - - -
25/06:30pm 21.8 ENE 6 8 1016.1 - 0.0 - - - - - - -
25/06:00pm 21.8 E 6 8 1015.8 - 0.0 - - - - - - -
25/05:30pm 22.1 E 6 9 1015.6 - 0.0 - - - - - - -
25/05:00pm 22.5 E 5 8 1015.7 - 0.0 - - - - - - -
25/04:30pm 23.3 ESE 4 7 1015.4 - 0.0 - - - - - - -
25/04:00pm 23.6 SE 7 11 1015.1 - 0.0 - - - - - - -
25/03:30pm 24.0 SE 7 11 1015.1 - 0.0 - - - - - - -
25/03:00pm 24.4 ESE 7 10 1015.2 - 0.0 - - - - - - -
25/02:30pm 24.4 SE 7 9 1015.4 - 0.0 - - - - - - -
25/02:00pm 24.5 SE 7 9 1015.4 - 0.0 - - - - - - -
25/01:30pm 25.0 ESE 7 9 1015.9 - 0.0 - - - - - - -
25/01:00pm 24.2 SE 6 8 1016.5 - 0.0 - - - - - - -
25/12:30pm 23.4 SSE 7 9 1016.8 - 0.0 - - - - - - -
25/12:00pm 23.5 S 6 8 1017.4 - 0.0 - - - - - - -
25/11:30am 23.4 S 7 9 1017.8 - 0.0 - - - - - - -
25/11:00am 23.2 SSE 6 8 1018.0 - 0.0 - - - - - - -
25/10:30am 22.9 S 9 11 1018.0 - 0.0 - - - - - - -
25/10:00am 22.9 S 9 11 1018.1 - 0.0 - - - - - - -
25/09:30am 22.7 SSE 8 11 1018.0 - 0.0 - - - - - - -
25/09:00am 23.0 SSE 7 9 1018.1 - 0.0 - - - - - - -
25/08:30am 22.4 S 7 9 1017.8 - 0.0 - - - - - - -
25/08:00am 22.3 S 7 10 1017.6 - 0.0 - - - - - - -
25/07:30am 21.9 S 6 8 1017.5 - 0.0 - - - - - - -
25/07:00am 21.5 SSE 4 5 1017.0 - 0.0 - - - - - - -
25/06:30am 21.5 SSE 5 6 1016.5 - 0.0 - - - - - - -
25/06:00am 21.3 SSE 5 5 1016.3 - 0.0 - - - - - - -
25/05:30am 21.4 SE 4 4 1016.1 - 0.0 - - - - - - -
25/05:00am 21.4 ESE 4 4 1016.0 - 0.0 - - - - - - -
25/04:30am 21.3 E 3 4 1016.2 - 0.0 - - - - - - -
25/04:00am 21.5 CALM 0 0 1016.0 - 0.0 - - - - - - -
25/03:30am 21.7 CALM 0 0 1016.5 - 0.0 - - - - - - -
25/03:00am 22.0 CALM 0 0 1016.6 - 0.0 - - - - - - -
25/02:30am 21.8 CALM 0 0 1016.5 - 0.0 - - - - - - -
25/02:00am 22.0 CALM 0 0 1016.9 - 0.0 - - - - - - -
25/01:30am 22.0 CALM 0 0 1017.1 - 0.0 - - - - - - -
25/01:00am 22.1 N 2 2 1017.2 - 0.0 - - - - - - -
25/12:30am 21.5 N 4 5 1017.3 - 0.0 - - - - - - -
25/12:00am 21.6 NNE 6 8 1017.3 - 0.0 - - - - - - -
 
Date/Time
EST
Temp

°C
Wind Pressure Rain
since 9am
mm
Weather Cloud Vis
km
Sea
Height
m
Swell
Dir
 
Speed
knots
Gust
knots
hPa Trend Height
m
Period
s
Dir
24/11:30pm 21.4 NNE 7 8 1017.4 - 0.0 - - - - - - -
24/11:00pm 21.8 NNE 6 7 1017.4 - 0.0 - - - - - - -
24/10:30pm 22.1 NE 5 7 1017.5 - 0.0 - - - - - - -
24/10:00pm 22.1 NE 6 8 1017.7 - 0.0 - - - - - - -
24/09:30pm 22.0 NNE 6 7 1017.7 - 0.0 - - - - - - -
24/09:00pm 22.1 NE 5 6 1017.8 - 0.0 - - - - - - -
24/08:30pm 22.3 NE 5 7 1017.7 - 0.0 - - - - - - -
24/08:00pm 22.2 ENE 6 6 1017.7 - 0.0 - - - - - - -
24/07:30pm 22.2 E 5 6 1017.5 - 0.0 - - - - - - -
24/07:00pm 22.3 ENE 5 5 1017.2 - 0.0 - - - - - - -
24/06:30pm 22.2 N 1 2 1017.3 - 0.0 - - - - - - -
24/06:00pm 22.0 N 5 5 1017.6 - 0.0 - - - - - - -
24/05:30pm 21.9 NNE 4 4 1017.1 - 0.0 - - - - - - -
24/05:00pm 22.6 CALM 0 0 1016.7 - 0.0 - - - - - - -
24/04:30pm 23.5 CALM 0 0 1016.6 - 0.0 - - - - - - -
24/04:00pm 23.6 CALM 0 0 1016.3 - 0.0 - - - - - - -
24/03:30pm 23.6 CALM 0 1 1016.1 - 0.0 - - - - - - -
24/03:00pm 24.0 S 4 5 1016.1 - 0.0 - - - - - - -
24/02:30pm 24.0 S 6 9 1015.8 - 0.0 - - - - - - -
24/02:00pm 24.1 SSW 7 10 1015.9 - 0.0 - - - - - - -
24/01:30pm 24.1 SSW 6 9 1016.1 - 0.0 - - - - - - -
24/01:00pm 24.2 S 7 9 1016.4 - 0.0 - - - - - - -
24/12:30pm 25.0 S 6 9 1016.4 - 0.0 - - - - - - -
24/12:00pm 24.3 S 7 10 1016.8 - 0.0 - - - - - - -
24/11:30am 24.5 SSE 6 10 1017.3 - 0.0 - - - - - - -
24/11:00am 24.5 SSE 5 9 1017.5 - 0.0 - - - - - - -
24/10:30am 24.9 SE 4 7 1017.8 - 0.0 - - - - - - -
24/10:00am 23.6 SSE 6 7 1018.3 - 0.0 - - - - - - -
24/09:30am 23.3 SSE 5 8 1018.4 - 0.0 - - - - - - -
24/09:00am 22.9 SSE 4 6 1018.4 - 0.0 - - - - - - -

Other Formats:

Comma delimited format used in spreadsheet applications
http://www.bom.gov.au/fwo/IDQ60701/IDQ60701.94372.axf

JavaScript Object Notation format (JSON) in row-major order
http://www.bom.gov.au/fwo/IDQ60701/IDQ60701.94372.json